sensor_id;sensor_type;location;lat;lon;timestamp;pressure;altitude;pressure_sealevel;temperature;humidity
32131;BME280;18639;50.716;7.086;2022-10-15T00:00:27;99619.59;;;14.10;100.00
32131;BME280;18639;50.716;7.086;2022-10-15T00:02:52;99623.13;;;14.09;100.00
32131;BME280;18639;50.716;7.086;2022-10-15T00:05:18;99601.53;;;13.99;100.00
32131;BME280;18639;50.716;7.086;2022-10-15T00:07:43;99610.41;;;14.06;100.00
32131;BME280;18639;50.716;7.086;2022-10-15T00:10:08;99563.00;;;13.75;100.00
32131;BME280;18639;50.716;7.086;2022-10-15T00:12:34;99592.38;;;14.04;100.00
32131;BME280;18639;50.716;7.086;2022-10-15T00:14:59;99593.34;;;14.03;100.00
32131;BME280;18639;50.716;7.086;2022-10-15T00:17:24;99590.03;;;14.01;100.00
32131;BME280;18639;50.716;7.086;2022-10-15T00:19:50;99589.22;;;14.01;100.00
32131;BME280;18639;50.716;7.086;2022-10-15T00:22:15;99589.09;;;14.02;100.00
32131;BME280;18639;50.716;7.086;2022-10-15T00:24:40;99574.47;;;13.91;100.00
32131;BME280;18639;50.716;7.086;2022-10-15T00:27:06;99589.78;;;14.04;100.00
32131;BME280;18639;50.716;7.086;2022-10-15T00:29:31;99587.88;;;13.97;100.00
32131;BME280;18639;50.716;7.086;2022-10-15T00:31:56;99576.94;;;13.93;100.00
32131;BME280;18639;50.716;7.086;2022-10-15T00:34:21;99585.13;;;13.98;100.00
32131;BME280;18639;50.716;7.086;2022-10-15T00:36:49;99583.38;;;13.99;100.00
32131;BME280;18639;50.716;7.086;2022-10-15T00:39:14;99559.19;;;13.88;100.00
32131;BME280;18639;50.716;7.086;2022-10-15T00:41:42;99572.00;;;14.00;100.00
32131;BME280;18639;50.716;7.086;2022-10-15T00:46:50;99573.94;;;13.88;100.00
32131;BME280;18639;50.716;7.086;2022-10-15T00:49:29;99579.13;;;13.98;100.00
32131;BME280;18639;50.716;7.086;2022-10-15T00:55:11;99552.59;;;13.84;100.00
32131;BME280;18639;50.716;7.086;2022-10-15T00:57:38;99561.91;;;13.87;100.00
32131;BME280;18639;50.716;7.086;2022-10-15T01:00:08;99578.72;;;13.93;100.00
32131;BME280;18639;50.716;7.086;2022-10-15T01:02:34;99582.56;;;13.88;100.00
32131;BME280;18639;50.716;7.086;2022-10-15T01:05:00;99594.44;;;13.91;100.00
32131;BME280;18639;50.716;7.086;2022-10-15T01:07:25;99581.03;;;13.86;100.00
32131;BME280;18639;50.716;7.086;2022-10-15T01:09:50;99591.16;;;13.89;100.00
32131;BME280;18639;50.716;7.086;2022-10-15T01:12:27;99586.66;;;13.91;100.00
32131;BME280;18639;50.716;7.086;2022-10-15T01:15:11;99576.53;;;13.88;100.00
32131;BME280;18639;50.716;7.086;2022-10-15T01:17:41;99570.94;;;13.93;100.00
32131;BME280;18639;50.716;7.086;2022-10-15T01:23:42;99577.75;;;13.94;100.00
32131;BME280;18639;50.716;7.086;2022-10-15T01:32:40;99554.81;;;13.79;100.00
32131;BME280;18639;50.716;7.086;2022-10-15T01:35:43;99571.19;;;13.89;100.00
32131;BME280;18639;50.716;7.086;2022-10-15T01:40:49;99567.38;;;13.84;100.00
32131;BME280;18639;50.716;7.086;2022-10-15T01:43:22;99580.50;;;13.92;100.00
32131;BME280;18639;50.716;7.086;2022-10-15T01:45:53;99580.91;;;13.87;100.00
32131;BME280;18639;50.716;7.086;2022-10-15T01:48:23;99581.56;;;13.89;100.00
32131;BME280;18639;50.716;7.086;2022-10-15T01:50:53;99587.88;;;13.97;100.00
32131;BME280;18639;50.716;7.086;2022-10-15T01:53:22;99563.28;;;13.81;100.00
32131;BME280;18639;50.716;7.086;2022-10-15T01:55:52;99585.56;;;13.94;100.00
32131;BME280;18639;50.716;7.086;2022-10-15T01:58:19;99578.03;;;13.90;100.00
32131;BME280;18639;50.716;7.086;2022-10-15T02:00:46;99578.44;;;13.96;100.00
32131;BME280;18639;50.716;7.086;2022-10-15T02:03:12;99582.66;;;13.97;100.00
32131;BME280;18639;50.716;7.086;2022-10-15T02:05:47;99572.56;;;13.94;100.00
32131;BME280;18639;50.716;7.086;2022-10-15T02:10:54;99558.34;;;13.98;100.00
32131;BME280;18639;50.716;7.086;2022-10-15T02:21:25;99569.56;;;13.98;100.00
32131;BME280;18639;50.716;7.086;2022-10-15T02:24:04;99563.13;;;13.93;100.00
32131;BME280;18639;50.716;7.086;2022-10-15T02:26:32;99562.19;;;13.94;100.00
32131;BME280;18639;50.716;7.086;2022-10-15T02:28:59;99576.66;;;13.96;100.00
32131;BME280;18639;50.716;7.086;2022-10-15T02:31:29;99575.16;;;13.94;100.00
32131;BME280;18639;50.716;7.086;2022-10-15T02:33:57;99567.94;;;13.87;100.00
32131;BME280;18639;50.716;7.086;2022-10-15T02:36:25;99573.94;;;13.88;100.00
32131;BME280;18639;50.716;7.086;2022-10-15T02:38:53;99573.78;;;13.89;100.00
32131;BME280;18639;50.716;7.086;2022-10-15T02:41:21;99571.78;;;13.83;100.00
32131;BME280;18639;50.716;7.086;2022-10-15T02:43:46;99582.56;;;13.88;100.00
32131;BME280;18639;50.716;7.086;2022-10-15T02:46:13;99583.50;;;13.87;100.00
32131;BME280;18639;50.716;7.086;2022-10-15T02:48:40;99543.75;;;13.68;100.00
32131;BME280;18639;50.716;7.086;2022-10-15T02:51:05;99577.63;;;13.85;100.00
32131;BME280;18639;50.716;7.086;2022-10-15T02:53:31;99555.34;;;13.73;100.00
32131;BME280;18639;50.716;7.086;2022-10-15T02:55:56;99549.38;;;13.73;100.00
32131;BME280;18639;50.716;7.086;2022-10-15T02:58:21;99560.00;;;13.79;100.00
32131;BME280;18639;50.716;7.086;2022-10-15T03:00:48;99577.75;;;13.84;100.00
32131;BME280;18639;50.716;7.086;2022-10-15T03:03:13;99567.78;;;13.79;100.00
32131;BME280;18639;50.716;7.086;2022-10-15T03:05:38;99555.34;;;13.73;100.00
32131;BME280;18639;50.716;7.086;2022-10-15T03:08:04;99581.47;;;13.81;100.00
32131;BME280;18639;50.716;7.086;2022-10-15T03:10:29;99558.94;;;13.72;100.00
32131;BME280;18639;50.716;7.086;2022-10-15T03:12:54;99562.19;;;13.74;100.00
32131;BME280;18639;50.716;7.086;2022-10-15T03:15:20;99566.03;;;13.70;100.00
32131;BME280;18639;50.716;7.086;2022-10-15T03:17:45;99570.94;;;13.73;100.00
32131;BME280;18639;50.716;7.086;2022-10-15T03:20:10;99576.13;;;13.73;100.00
32131;BME280;18639;50.716;7.086;2022-10-15T03:22:36;99552.09;;;13.62;100.00
32131;BME280;18639;50.716;7.086;2022-10-15T03:25:01;99557.84;;;13.65;100.00
32131;BME280;18639;50.716;7.086;2022-10-15T03:27:27;99553.34;;;13.67;100.00
32131;BME280;18639;50.716;7.086;2022-10-15T03:29:52;99558.09;;;13.62;100.00
32131;BME280;18639;50.716;7.086;2022-10-15T03:32:17;99560.03;;;13.60;100.00
32131;BME280;18639;50.716;7.086;2022-10-15T03:34:42;99566.03;;;13.61;100.00
32131;BME280;18639;50.716;7.086;2022-10-15T03:37:08;99551.84;;;13.55;100.00
32131;BME280;18639;50.716;7.086;2022-10-15T03:39:33;99570.66;;;13.57;100.00
32131;BME280;18639;50.716;7.086;2022-10-15T03:41:58;99557.56;;;13.49;100.00
32131;BME280;18639;50.716;7.086;2022-10-15T03:44:23;99569.06;;;13.56;100.00
32131;BME280;18639;50.716;7.086;2022-10-15T03:46:49;99586.25;;;13.57;100.00
32131;BME280;18639;50.716;7.086;2022-10-15T03:49:14;99551.56;;;13.39;100.00
32131;BME280;18639;50.716;7.086;2022-10-15T03:51:40;99561.81;;;13.40;100.00
32131;BME280;18639;50.716;7.086;2022-10-15T03:54:05;99578.63;;;13.46;100.00
32131;BME280;18639;50.716;7.086;2022-10-15T03:56:30;99584.88;;;13.53;100.00
32131;BME280;18639;50.716;7.086;2022-10-15T03:58:55;99565.91;;;13.43;100.00
32131;BME280;18639;50.716;7.086;2022-10-15T04:01:21;99535.84;;;13.21;100.00
32131;BME280;18639;50.716;7.086;2022-10-15T04:03:46;99540.91;;;13.23;100.00
32131;BME280;18639;50.716;7.086;2022-10-15T04:06:11;99559.59;;;13.36;100.00
32131;BME280;18639;50.716;7.086;2022-10-15T04:08:36;99581.63;;;13.51;100.00
32131;BME280;18639;50.716;7.086;2022-10-15T04:11:02;99571.50;;;13.48;100.00
32131;BME280;18639;50.716;7.086;2022-10-15T04:13:27;99559.75;;;13.44;100.00
32131;BME280;18639;50.716;7.086;2022-10-15T04:15:53;99566.06;;;13.51;100.00
32131;BME280;18639;50.716;7.086;2022-10-15T04:18:19;99579.16;;;13.49;100.00
32131;BME280;18639;50.716;7.086;2022-10-15T04:20:46;99562.19;;;13.36;100.00
32131;BME280;18639;50.716;7.086;2022-10-15T04:23:12;99573.97;;;13.49;100.00
32131;BME280;18639;50.716;7.086;2022-10-15T04:25:37;99546.63;;;13.36;100.00
32131;BME280;18639;50.716;7.086;2022-10-15T04:28:03;99546.09;;;13.42;100.00
32131;BME280;18639;50.716;7.086;2022-10-15T04:30:29;99531.75;;;13.38;100.00
32131;BME280;18639;50.716;7.086;2022-10-15T04:32:54;99527.25;;;13.40;100.00
32131;BME280;18639;50.716;7.086;2022-10-15T04:35:19;99539.00;;;13.44;100.00
32131;BME280;18639;50.716;7.086;2022-10-15T04:37:45;99527.09;;;13.32;100.00
32131;BME280;18639;50.716;7.086;2022-10-15T04:40:10;99543.34;;;13.43;100.00
32131;BME280;18639;50.716;7.086;2022-10-15T04:42:37;99549.91;;;13.38;100.00
32131;BME280;18639;50.716;7.086;2022-10-15T04:45:02;99563.03;;;13.46;100.00
32131;BME280;18639;50.716;7.086;2022-10-15T04:47:28;99562.88;;;13.38;100.00
32131;BME280;18639;50.716;7.086;2022-10-15T04:49:53;99565.34;;;13.39;100.00
32131;BME280;18639;50.716;7.086;2022-10-15T04:52:18;99575.19;;;13.45;100.00
32131;BME280;18639;50.716;7.086;2022-10-15T04:54:44;99576.03;;;13.46;100.00
32131;BME280;18639;50.716;7.086;2022-10-15T04:57:09;99558.94;;;13.34;100.00
32131;BME280;18639;50.716;7.086;2022-10-15T04:59:34;99574.38;;;13.45;100.00
32131;BME280;18639;50.716;7.086;2022-10-15T05:02:00;99574.22;;;13.46;100.00
32131;BME280;18639;50.716;7.086;2022-10-15T05:04:25;99575.75;;;13.49;100.00
32131;BME280;18639;50.716;7.086;2022-10-15T05:06:50;99574.22;;;13.46;100.00
32131;BME280;18639;50.716;7.086;2022-10-15T05:09:15;99573.25;;;13.47;100.00
32131;BME280;18639;50.716;7.086;2022-10-15T05:11:41;99570.41;;;13.51;100.00
32131;BME280;18639;50.716;7.086;2022-10-15T05:14:06;99562.75;;;13.39;100.00
32131;BME280;18639;50.716;7.086;2022-10-15T05:16:32;99580.63;;;13.52;100.00
32131;BME280;18639;50.716;7.086;2022-10-15T05:19:00;99577.38;;;13.50;100.00
32131;BME280;18639;50.716;7.086;2022-10-15T05:21:27;99580.25;;;13.57;100.00
32131;BME280;18639;50.716;7.086;2022-10-15T05:23:53;99584.63;;;13.56;100.00
32131;BME280;18639;50.716;7.086;2022-10-15T05:26:21;99584.47;;;13.58;100.00
32131;BME280;18639;50.716;7.086;2022-10-15T05:28:47;99589.66;;;13.58;100.00
32131;BME280;18639;50.716;7.086;2022-10-15T05:31:16;99591.44;;;13.57;100.00
32131;BME280;18639;50.716;7.086;2022-10-15T05:33:41;99585.00;;;13.52;100.00
32131;BME280;18639;50.716;7.086;2022-10-15T05:36:19;99586.94;;;13.59;100.00
32131;BME280;18639;50.716;7.086;2022-10-15T05:38:56;99592.13;;;13.59;100.00
32131;BME280;18639;50.716;7.086;2022-10-15T05:41:22;99596.38;;;13.60;100.00
32131;BME280;18639;50.716;7.086;2022-10-15T05:43:49;99592.94;;;13.60;100.00
32131;BME280;18639;50.716;7.086;2022-10-15T05:46:15;99596.50;;;13.59;100.00
32131;BME280;18639;50.716;7.086;2022-10-15T05:48:40;99590.06;;;13.53;100.00
32131;BME280;18639;50.716;7.086;2022-10-15T05:51:09;99579.03;;;13.51;100.00
32131;BME280;18639;50.716;7.086;2022-10-15T05:53:35;99581.88;;;13.48;100.00
32131;BME280;18639;50.716;7.086;2022-10-15T05:56:00;99587.91;;;13.48;100.00
32131;BME280;18639;50.716;7.086;2022-10-15T05:58:27;99583.13;;;13.44;100.00
32131;BME280;18639;50.716;7.086;2022-10-15T06:00:55;99596.09;;;13.44;100.00
32131;BME280;18639;50.716;7.086;2022-10-15T06:03:21;99595.69;;;13.39;100.00
32131;BME280;18639;50.716;7.086;2022-10-15T06:05:47;99587.06;;;13.29;100.00
32131;BME280;18639;50.716;7.086;2022-10-15T06:08:12;99593.19;;;13.28;100.00
32131;BME280;18639;50.716;7.086;2022-10-15T06:10:37;99569.81;;;13.08;100.00
32131;BME280;18639;50.716;7.086;2022-10-15T06:13:04;99597.28;;;13.21;100.00
32131;BME280;18639;50.716;7.086;2022-10-15T06:15:30;99580.56;;;13.04;100.00
32131;BME280;18639;50.716;7.086;2022-10-15T06:17:55;99582.31;;;13.03;100.00
32131;BME280;18639;50.716;7.086;2022-10-15T06:20:21;99605.97;;;13.10;100.00
32131;BME280;18639;50.716;7.086;2022-10-15T06:22:46;99576.06;;;12.96;100.00
32131;BME280;18639;50.716;7.086;2022-10-15T06:25:11;99598.59;;;13.05;100.00
32131;BME280;18639;50.716;7.086;2022-10-15T06:27:37;99581.25;;;12.96;100.00
32131;BME280;18639;50.716;7.086;2022-10-15T06:30:02;99592.16;;;13.00;100.00
32131;BME280;18639;50.716;7.086;2022-10-15T06:32:28;99593.94;;;12.99;100.00
32131;BME280;18639;50.716;7.086;2022-10-15T06:34:53;99594.31;;;12.95;100.00
32131;BME280;18639;50.716;7.086;2022-10-15T06:37:19;99605.13;;;13.00;100.00
32131;BME280;18639;50.716;7.086;2022-10-15T06:39:44;99613.03;;;12.98;100.00
32131;BME280;18639;50.716;7.086;2022-10-15T06:42:10;99609.06;;;12.94;100.00
32131;BME280;18639;50.716;7.086;2022-10-15T06:44:36;99612.09;;;12.99;100.00
32131;BME280;18639;50.716;7.086;2022-10-15T06:47:01;99616.31;;;13.00;100.00
32131;BME280;18639;50.716;7.086;2022-10-15T06:49:27;99603.63;;;12.97;100.00
32131;BME280;18639;50.716;7.086;2022-10-15T06:51:52;99609.38;;;13.11;100.00
32131;BME280;18639;50.716;7.086;2022-10-15T06:54:17;99579.03;;;12.92;100.00
32131;BME280;18639;50.716;7.086;2022-10-15T06:56:42;99625.03;;;13.39;100.00
32131;BME280;18639;50.716;7.086;2022-10-15T06:59:09;99614.13;;;13.45;100.00
32131;BME280;18639;50.716;7.086;2022-10-15T07:01:34;99630.78;;;13.62;100.00
32131;BME280;18639;50.716;7.086;2022-10-15T07:03:59;99626.44;;;13.72;100.00
32131;BME280;18639;50.716;7.086;2022-10-15T07:06:25;99628.63;;;13.77;100.00
32131;BME280;18639;50.716;7.086;2022-10-15T07:08:50;99594.72;;;13.69;100.00
32131;BME280;18639;50.716;7.086;2022-10-15T07:11:15;99629.44;;;13.87;100.00
32131;BME280;18639;50.716;7.086;2022-10-15T07:13:42;99615.34;;;13.89;100.00
32131;BME280;18639;50.716;7.086;2022-10-15T07:16:10;99615.19;;;14.01;100.00
32131;BME280;18639;50.716;7.086;2022-10-15T07:18:36;99555.22;;;13.75;100.00
32131;BME280;18639;50.716;7.086;2022-10-15T07:21:03;99600.16;;;14.14;100.00
32131;BME280;18639;50.716;7.086;2022-10-15T07:23:29;99604.22;;;14.26;100.00
32131;BME280;18639;50.716;7.086;2022-10-15T07:25:58;99612.94;;;14.34;100.00
32131;BME280;18639;50.716;7.086;2022-10-15T07:28:24;99621.28;;;14.57;100.00
32131;BME280;18639;50.716;7.086;2022-10-15T07:30:49;99609.06;;;14.67;100.00
32131;BME280;18639;50.716;7.086;2022-10-15T07:33:15;99620.09;;;14.79;100.00
32131;BME280;18639;50.716;7.086;2022-10-15T07:35:40;99615.03;;;14.78;100.00
32131;BME280;18639;50.716;7.086;2022-10-15T07:38:06;99599.47;;;14.68;100.00
32131;BME280;18639;50.716;7.086;2022-10-15T07:40:32;99610.09;;;14.74;100.00
32131;BME280;18639;50.716;7.086;2022-10-15T07:42:58;99605.50;;;14.68;100.00
32131;BME280;18639;50.716;7.086;2022-10-15T07:45:24;99608.47;;;14.73;100.00
32131;BME280;18639;50.716;7.086;2022-10-15T07:47:50;99614.06;;;14.79;100.00
32131;BME280;18639;50.716;7.086;2022-10-15T07:50:15;99597.78;;;14.77;100.00
32131;BME280;18639;50.716;7.086;2022-10-15T07:52:41;99593.91;;;14.81;100.00
32131;BME280;18639;50.716;7.086;2022-10-15T07:55:06;99600.06;;;14.89;100.00
32131;BME280;18639;50.716;7.086;2022-10-15T07:57:32;99595.47;;;15.01;100.00
32131;BME280;18639;50.716;7.086;2022-10-15T07:59:57;99571.81;;;14.94;100.00
32131;BME280;18639;50.716;7.086;2022-10-15T08:02:24;99577.47;;;15.07;100.00
32131;BME280;18639;50.716;7.086;2022-10-15T08:04:50;99588.81;;;15.16;100.00
32131;BME280;18639;50.716;7.086;2022-10-15T08:07:15;99591.47;;;15.24;100.00
32131;BME280;18639;50.716;7.086;2022-10-15T08:09:40;99574.22;;;15.23;100.00
32131;BME280;18639;50.716;7.086;2022-10-15T08:12:05;99582.72;;;15.25;100.00
32131;BME280;18639;50.716;7.086;2022-10-15T08:14:32;99580.34;;;15.32;100.00
32131;BME280;18639;50.716;7.086;2022-10-15T08:16:58;99587.97;;;15.33;100.00
32131;BME280;18639;50.716;7.086;2022-10-15T08:19:23;99585.47;;;15.41;100.00
32131;BME280;18639;50.716;7.086;2022-10-15T08:21:48;99576.03;;;15.40;100.00
32131;BME280;18639;50.716;7.086;2022-10-15T08:24:14;99585.53;;;15.49;100.00
32131;BME280;18639;50.716;7.086;2022-10-15T08:26:39;99577.84;;;15.57;100.00
32131;BME280;18639;50.716;7.086;2022-10-15T08:29:04;99553.78;;;15.46;100.00
32131;BME280;18639;50.716;7.086;2022-10-15T08:31:30;99578.88;;;15.65;100.00
32131;BME280;18639;50.716;7.086;2022-10-15T08:33:59;99568.75;;;15.62;100.00
32131;BME280;18639;50.716;7.086;2022-10-15T08:36:24;99563.19;;;15.56;100.00
32131;BME280;18639;50.716;7.086;2022-10-15T08:38:53;99566.16;;;15.62;100.00
32131;BME280;18639;50.716;7.086;2022-10-15T08:41:45;99564.88;;;15.66;100.00
32131;BME280;18639;50.716;7.086;2022-10-15T08:44:22;99577.97;;;15.74;100.00
32131;BME280;18639;50.716;7.086;2022-10-15T08:46:52;99566.34;;;15.86;100.00
32131;BME280;18639;50.716;7.086;2022-10-15T08:49:32;99568.88;;;15.95;100.00
32131;BME280;18639;50.716;7.086;2022-10-15T08:52:07;99547.19;;;15.95;100.00
32131;BME280;18639;50.716;7.086;2022-10-15T08:54:38;99556.03;;;16.28;100.00
32131;BME280;18639;50.716;7.086;2022-10-15T08:57:15;99557.06;;;17.19;100.00
32131;BME280;18639;50.716;7.086;2022-10-15T09:02:33;99550.72;;;18.97;100.00
32131;BME280;18639;50.716;7.086;2022-10-15T09:05:26;99548.53;;;18.85;99.90
32131;BME280;18639;50.716;7.086;2022-10-15T09:08:28;99537.19;;;18.46;100.00
32131;BME280;18639;50.716;7.086;2022-10-15T09:13:43;99550.72;;;18.11;100.00
32131;BME280;18639;50.716;7.086;2022-10-15T09:16:20;99550.59;;;17.88;100.00
32131;BME280;18639;50.716;7.086;2022-10-15T09:18:48;99506.97;;;17.40;100.00
32131;BME280;18639;50.716;7.086;2022-10-15T09:21:16;99529.00;;;17.37;100.00
32131;BME280;18639;50.716;7.086;2022-10-15T09:23:42;99543.53;;;17.40;100.00
32131;BME280;18639;50.716;7.086;2022-10-15T09:28:53;99545.22;;;17.73;100.00
32131;BME280;18639;50.716;7.086;2022-10-15T09:31:25;99540.94;;;17.88;100.00
32131;BME280;18639;50.716;7.086;2022-10-15T09:36:34;99536.31;;;18.06;100.00
32131;BME280;18639;50.716;7.086;2022-10-15T09:39:27;99550.56;;;18.67;100.00
32131;BME280;18639;50.716;7.086;2022-10-15T09:42:09;99543.06;;;18.95;100.00
32131;BME280;18639;50.716;7.086;2022-10-15T09:44:41;99536.78;;;19.04;100.00
32131;BME280;18639;50.716;7.086;2022-10-15T09:47:16;99530.66;;;18.89;100.00
32131;BME280;18639;50.716;7.086;2022-10-15T09:49:46;99542.50;;;18.77;100.00
32131;BME280;18639;50.716;7.086;2022-10-15T09:57:54;99530.94;;;18.08;100.00
32131;BME280;18639;50.716;7.086;2022-10-15T10:00:22;99538.94;;;18.15;100.00
32131;BME280;18639;50.716;7.086;2022-10-15T10:03:05;99537.97;;;18.07;100.00
32131;BME280;18639;50.716;7.086;2022-10-15T10:05:34;99515.78;;;17.87;100.00
32131;BME280;18639;50.716;7.086;2022-10-15T10:08:13;99513.16;;;17.87;100.00
32131;BME280;18639;50.716;7.086;2022-10-15T10:10:43;99528.47;;;18.15;100.00
32131;BME280;18639;50.716;7.086;2022-10-15T10:13:22;99504.63;;;18.01;100.00
32131;BME280;18639;50.716;7.086;2022-10-15T10:15:51;99503.34;;;18.05;100.00
32131;BME280;18639;50.716;7.086;2022-10-15T10:18:24;99522.88;;;18.18;100.00
32131;BME280;18639;50.716;7.086;2022-10-15T10:20:56;99515.66;;;18.36;100.00
32131;BME280;18639;50.716;7.086;2022-10-15T10:23:31;99503.91;;;18.71;100.00
32131;BME280;18639;50.716;7.086;2022-10-15T10:25:59;99499.22;;;18.89;99.95
32131;BME280;18639;50.716;7.086;2022-10-15T10:28:33;99508.13;;;19.03;100.00
32131;BME280;18639;50.716;7.086;2022-10-15T10:31:08;99514.25;;;18.95;100.00
32131;BME280;18639;50.716;7.086;2022-10-15T10:36:06;99503.38;;;19.06;99.80
32131;BME280;18639;50.716;7.086;2022-10-15T10:38:35;99506.38;;;19.18;100.00
32131;BME280;18639;50.716;7.086;2022-10-15T10:41:05;99513.84;;;19.29;100.00
32131;BME280;18639;50.716;7.086;2022-10-15T10:43:35;99518.38;;;19.35;98.06
32131;BME280;18639;50.716;7.086;2022-10-15T10:46:16;99507.00;;;19.28;98.20
32131;BME280;18639;50.716;7.086;2022-10-15T10:48:51;99496.84;;;19.25;98.25
32131;BME280;18639;50.716;7.086;2022-10-15T10:51:23;99507.56;;;19.15;98.69
32131;BME280;18639;50.716;7.086;2022-10-15T10:56:19;99518.34;;;19.20;99.96
32131;BME280;18639;50.716;7.086;2022-10-15T10:58:48;99505.69;;;19.24;99.75
32131;BME280;18639;50.716;7.086;2022-10-15T11:01:16;99494.81;;;19.35;96.22
32131;BME280;18639;50.716;7.086;2022-10-15T11:03:44;99494.09;;;19.41;95.69
32131;BME280;18639;50.716;7.086;2022-10-15T11:11:40;99494.19;;;19.33;97.26
32131;BME280;18639;50.716;7.086;2022-10-15T11:17:11;99484.16;;;19.59;95.93
32131;BME280;18639;50.716;7.086;2022-10-15T11:20:05;99503.59;;;19.65;94.98
32131;BME280;18639;50.716;7.086;2022-10-15T11:23:12;99492.75;;;19.68;95.81
32131;BME280;18639;50.716;7.086;2022-10-15T11:25:54;99500.56;;;19.76;95.39
32131;BME280;18639;50.716;7.086;2022-10-15T11:31:32;99494.09;;;19.64;94.85
32131;BME280;18639;50.716;7.086;2022-10-15T11:37:30;99480.47;;;19.68;94.70
32131;BME280;18639;50.716;7.086;2022-10-15T11:42:36;99478.56;;;19.77;94.66
32131;BME280;18639;50.716;7.086;2022-10-15T11:48:05;99485.28;;;19.80;94.00
32131;BME280;18639;50.716;7.086;2022-10-15T11:50:47;99472.84;;;19.59;95.27
32131;BME280;18639;50.716;7.086;2022-10-15T11:55:53;99476.56;;;19.64;94.66
32131;BME280;18639;50.716;7.086;2022-10-15T11:58:47;99485.88;;;19.67;95.82
32131;BME280;18639;50.716;7.086;2022-10-15T12:01:27;99463.91;;;19.53;98.00
32131;BME280;18639;50.716;7.086;2022-10-15T12:04:10;99437.63;;;19.39;97.97
32131;BME280;18639;50.716;7.086;2022-10-15T12:06:41;99470.53;;;19.64;99.00
32131;BME280;18639;50.716;7.086;2022-10-15T12:09:15;99437.41;;;19.48;98.08
32131;BME280;18639;50.716;7.086;2022-10-15T12:12:04;99464.09;;;19.66;96.20
32131;BME280;18639;50.716;7.086;2022-10-15T12:14:38;99443.63;;;19.47;97.49
32131;BME280;18639;50.716;7.086;2022-10-15T12:17:20;99466.81;;;19.58;96.18
32131;BME280;18639;50.716;7.086;2022-10-15T12:19:55;99459.91;;;19.57;97.25
32131;BME280;18639;50.716;7.086;2022-10-15T12:28:03;99426.03;;;19.56;96.18
32131;BME280;18639;50.716;7.086;2022-10-15T12:30:31;99455.06;;;19.84;94.35
32131;BME280;18639;50.716;7.086;2022-10-15T12:32:59;99439.44;;;19.75;95.30
32131;BME280;18639;50.716;7.086;2022-10-15T12:35:38;99451.00;;;19.81;94.54
32131;BME280;18639;50.716;7.086;2022-10-15T12:38:35;99464.75;;;19.83;95.37
32131;BME280;18639;50.716;7.086;2022-10-15T12:41:07;99456.34;;;19.88;95.37
32131;BME280;18639;50.716;7.086;2022-10-15T12:43:35;99451.00;;;19.96;95.63
32131;BME280;18639;50.716;7.086;2022-10-15T12:46:05;99443.97;;;19.96;95.63
32131;BME280;18639;50.716;7.086;2022-10-15T12:48:41;99442.94;;;19.83;95.93
32131;BME280;18639;50.716;7.086;2022-10-15T12:53:52;99427.41;;;19.81;96.01
32131;BME280;18639;50.716;7.086;2022-10-15T12:56:22;99422.50;;;19.78;94.86
32131;BME280;18639;50.716;7.086;2022-10-15T12:58:49;99441.63;;;19.87;96.09
32131;BME280;18639;50.716;7.086;2022-10-15T13:03:51;99447.94;;;19.92;94.75
32131;BME280;18639;50.716;7.086;2022-10-15T13:08:55;99438.72;;;19.96;94.72
32131;BME280;18639;50.716;7.086;2022-10-15T13:11:51;99424.06;;;19.87;96.52
32131;BME280;18639;50.716;7.086;2022-10-15T13:14:33;99417.38;;;19.85;97.03
32131;BME280;18639;50.716;7.086;2022-10-15T13:17:17;99408.59;;;19.92;96.33
32131;BME280;18639;50.716;7.086;2022-10-15T13:22:24;99429.31;;;19.87;97.52
32131;BME280;18639;50.716;7.086;2022-10-15T13:24:50;99410.94;;;19.72;97.77
32131;BME280;18639;50.716;7.086;2022-10-15T13:27:36;99413.38;;;19.89;96.61
32131;BME280;18639;50.716;7.086;2022-10-15T13:30:11;99418.00;;;19.87;97.20
32131;BME280;18639;50.716;7.086;2022-10-15T13:32:48;99423.69;;;19.90;97.25
32131;BME280;18639;50.716;7.086;2022-10-15T13:35:28;99408.53;;;19.71;97.58
32131;BME280;18639;50.716;7.086;2022-10-15T13:37:57;99422.78;;;19.83;96.74
32131;BME280;18639;50.716;7.086;2022-10-15T13:40:25;99440.88;;;19.93;96.62
32131;BME280;18639;50.716;7.086;2022-10-15T13:42:59;99443.69;;;19.91;96.97
32131;BME280;18639;50.716;7.086;2022-10-15T13:45:25;99439.00;;;19.87;97.31
32131;BME280;18639;50.716;7.086;2022-10-15T13:47:52;99434.81;;;19.77;98.71
32131;BME280;18639;50.716;7.086;2022-10-15T13:52:56;99444.56;;;19.84;98.29
32131;BME280;18639;50.716;7.086;2022-10-15T13:55:27;99448.47;;;19.73;99.11
32131;BME280;18639;50.716;7.086;2022-10-15T13:58:02;99441.84;;;19.62;99.63
32131;BME280;18639;50.716;7.086;2022-10-15T14:00:34;99454.41;;;19.67;99.19
32131;BME280;18639;50.716;7.086;2022-10-15T14:03:20;99437.78;;;19.60;98.49
32131;BME280;18639;50.716;7.086;2022-10-15T14:05:48;99410.56;;;19.46;99.37
32131;BME280;18639;50.716;7.086;2022-10-15T14:08:16;99443.31;;;19.65;99.43
32131;BME280;18639;50.716;7.086;2022-10-15T14:10:42;99430.81;;;19.52;99.79
32131;BME280;18639;50.716;7.086;2022-10-15T14:13:09;99402.19;;;19.28;98.30
32131;BME280;18639;50.716;7.086;2022-10-15T14:15:51;99444.66;;;19.61;97.72
32131;BME280;18639;50.716;7.086;2022-10-15T14:18:27;99447.63;;;19.58;98.23
32131;BME280;18639;50.716;7.086;2022-10-15T14:20:53;99445.41;;;19.69;97.09
32131;BME280;18639;50.716;7.086;2022-10-15T14:23:24;99444.13;;;19.65;97.53
32131;BME280;18639;50.716;7.086;2022-10-15T14:25:59;99434.91;;;19.55;98.23
32131;BME280;18639;50.716;7.086;2022-10-15T14:28:27;99451.88;;;19.59;99.22
32131;BME280;18639;50.716;7.086;2022-10-15T14:30:53;99450.09;;;19.59;99.96
32131;BME280;18639;50.716;7.086;2022-10-15T14:36:26;99460.00;;;19.49;100.00
32131;BME280;18639;50.716;7.086;2022-10-15T14:38:53;99434.53;;;19.35;100.00